Cambridge, IA

3:28 PM CST on January 29, 2015 (GMT -0600)
Ames Municipal | Change Station
CLOSE
Current Station
Airport
Location: Ames,
Elevation: 955 ft
Nearby Weather Stations

Elev 955 ft 41.99 °N, 93.62 °W | Updated 35 minutes ago

Overcast
Overcast
35 °F
Feels Like 22 °F
N
29
Wind Variable Wind from NNW
Gusts 43 mph

Today
High -- | Low -- °F
--% Chance of Precip.
Yesterday
High -- | Low -- °F
Precip. -- in
7:29 AM 5:25 PM
Waxing Gibbous, 77% visible
Pressure 30.35 in
Visibility 10.0 miles
Clouds Overcast 3000 ft
Windchill 22 °F
Dew Point 22 °F
Humidity 59%
Rainfall 0.00 in
Snow Depth Not available.
UV 1 out of 12
Pollen 1.30 out of 12
Air Quality Not available.
Flu Activity Not available.
METAR KAMW 292053Z AUTO 33025G37KT 10SM OVC030 02/M06 A3032 RMK AO2 PK WND 32037/2051 SLP275 T00171056 53016

More Conditions Fewer Conditions

Pressure 30.35 in
Visibility 10.0 miles
Clouds Overcast 3000 ft
Windchill 22 °F
Dew Point 22 °F
Humidity 59%
Rainfall 0.00 in
Snow Depth Not available.
UV 1 out of 12
Pollen 1.30 out of 12
Air Quality Not available.
Flu Activity Not available.
METAR KAMW 292053Z AUTO 33025G37KT 10SM OVC030 02/M06 A3032 RMK AO2 PK WND 32037/2051 SLP275 T00171056 53016

More Conditions Fewer Conditions

10-Day Weather Forecast

Almanac

Astronomy

Jan. 29, 2015 Rise Set
Actual Time
Civil Twilight
Nautical Twilight
Astronomical Twilight
Moon
Length of Visible Light
Length of Day
Tomorrow will be .
, % of the Moon is Illuminated

Today's Extremes

State Highs State Lows

Community

WunderPhotos

Upload Photos

1,791,607 photos uploaded!

WunderBlogs® & News

Nearby

Air Quality

  Air Quality AQ Index Pollutant
Not available.

Snow Depth

Station Depth Elevation

Earthquake Activity

City Distance Mag. Time & Date
Minimum magnitude displayed is 2.5.

Coastal Water Temperatures

Place Temperature

Nearby Weather Stations